sensor_id;sensor_type;location;lat;lon;timestamp;pressure;altitude;pressure_sealevel;temperature;humidity
7966;BME280;4028;43.272;26.932;2023-04-01T00:00:31;98300.66;;;9.47;100.00
7966;BME280;4028;43.272;26.932;2023-04-01T00:02:57;98297.16;;;9.47;100.00
7966;BME280;4028;43.272;26.932;2023-04-01T00:05:23;98301.38;;;9.57;100.00
7966;BME280;4028;43.272;26.932;2023-04-01T00:07:50;98290.09;;;9.47;100.00
7966;BME280;4028;43.272;26.932;2023-04-01T00:10:16;98292.22;;;9.44;100.00
7966;BME280;4028;43.272;26.932;2023-04-01T00:12:42;98289.41;;;9.45;100.00
7966;BME280;4028;43.272;26.932;2023-04-01T00:15:09;98279.94;;;9.34;100.00
7966;BME280;4028;43.272;26.932;2023-04-01T00:17:35;98272.31;;;9.31;100.00
7966;BME280;4028;43.272;26.932;2023-04-01T00:20:01;98269.66;;;9.23;100.00
7966;BME280;4028;43.272;26.932;2023-04-01T00:22:28;98266.69;;;9.26;100.00
7966;BME280;4028;43.272;26.932;2023-04-01T00:24:53;98229.94;;;8.99;100.00
7966;BME280;4028;43.272;26.932;2023-04-01T00:27:19;98262.38;;;9.17;100.00
7966;BME280;4028;43.272;26.932;2023-04-01T00:29:46;98257.44;;;9.22;100.00
7966;BME280;4028;43.272;26.932;2023-04-01T00:32:13;98256.28;;;9.25;100.00
7966;BME280;4028;43.272;26.932;2023-04-01T00:34:39;98244.38;;;9.21;100.00
7966;BME280;4028;43.272;26.932;2023-04-01T00:37:05;98247.00;;;9.13;100.00
7966;BME280;4028;43.272;26.932;2023-04-01T00:39:31;98249.66;;;9.13;100.00
7966;BME280;4028;43.272;26.932;2023-04-01T00:41:58;98254.72;;;9.06;100.00
7966;BME280;4028;43.272;26.932;2023-04-01T00:44:27;98260.13;;;9.04;100.00
7966;BME280;4028;43.272;26.932;2023-04-01T00:46:53;98248.09;;;9.02;100.00
7966;BME280;4028;43.272;26.932;2023-04-01T00:49:22;98243.53;;;9.12;100.00
7966;BME280;4028;43.272;26.932;2023-04-01T00:51:52;98246.66;;;9.07;100.00
7966;BME280;4028;43.272;26.932;2023-04-01T00:54:19;98239.84;;;9.05;100.00
7966;BME280;4028;43.272;26.932;2023-04-01T00:56:52;98224.34;;;9.02;100.00
7966;BME280;4028;43.272;26.932;2023-04-01T00:59:34;98235.00;;;9.18;100.00
7966;BME280;4028;43.272;26.932;2023-04-01T01:02:05;98235.75;;;9.10;100.00
7966;BME280;4028;43.272;26.932;2023-04-01T01:04:33;98246.59;;;8.99;100.00
7966;BME280;4028;43.272;26.932;2023-04-01T01:10:11;98237.03;;;8.98;100.00
7966;BME280;4028;43.272;26.932;2023-04-01T01:12:46;98217.00;;;8.88;100.00
7966;BME280;4028;43.272;26.932;2023-04-01T01:15:26;98228.28;;;8.98;100.00
7966;BME280;4028;43.272;26.932;2023-04-01T01:18:22;98229.94;;;8.99;100.00
7966;BME280;4028;43.272;26.932;2023-04-01T01:27:13;98230.56;;;8.93;100.00
7966;BME280;4028;43.272;26.932;2023-04-01T01:37:38;98217.31;;;8.84;100.00
7966;BME280;4028;43.272;26.932;2023-04-01T01:40:08;98202.53;;;8.92;100.00
7966;BME280;4028;43.272;26.932;2023-04-01T01:42:37;98206.50;;;8.96;100.00
7966;BME280;4028;43.272;26.932;2023-04-01T01:45:06;98211.06;;;8.85;100.00
7966;BME280;4028;43.272;26.932;2023-04-01T01:47:33;98212.34;;;8.81;100.00
7966;BME280;4028;43.272;26.932;2023-04-01T01:50:00;98202.72;;;8.72;100.00
7966;BME280;4028;43.272;26.932;2023-04-01T01:52:27;98198.44;;;8.71;100.00
7966;BME280;4028;43.272;26.932;2023-04-01T01:54:55;98201.75;;;8.73;100.00
7966;BME280;4028;43.272;26.932;2023-04-01T01:57:39;98191.00;;;8.67;100.00
7966;BME280;4028;43.272;26.932;2023-04-01T02:00:08;98188.72;;;8.72;100.00
7966;BME280;4028;43.272;26.932;2023-04-01T02:02:44;98189.19;;;8.67;100.00
7966;BME280;4028;43.272;26.932;2023-04-01T02:05:11;98188.91;;;8.78;100.00
7966;BME280;4028;43.272;26.932;2023-04-01T02:07:43;98186.84;;;8.64;100.00
7966;BME280;4028;43.272;26.932;2023-04-01T02:10:12;98182.88;;;8.60;100.00
7966;BME280;4028;43.272;26.932;2023-04-01T02:12:39;98185.72;;;8.67;100.00
7966;BME280;4028;43.272;26.932;2023-04-01T02:15:08;98181.66;;;8.54;100.00
7966;BME280;4028;43.272;26.932;2023-04-01T02:17:40;98161.34;;;8.47;100.00
7966;BME280;4028;43.272;26.932;2023-04-01T02:20:12;98171.47;;;8.59;100.00
7966;BME280;4028;43.272;26.932;2023-04-01T02:22:46;98178.56;;;8.59;100.00
7966;BME280;4028;43.272;26.932;2023-04-01T02:25:20;98176.16;;;8.66;100.00
7966;BME280;4028;43.272;26.932;2023-04-01T02:27:47;98142.31;;;8.35;100.00
7966;BME280;4028;43.272;26.932;2023-04-01T02:30:15;98165.53;;;8.57;100.00
7966;BME280;4028;43.272;26.932;2023-04-01T02:32:41;98167.00;;;8.52;100.00
7966;BME280;4028;43.272;26.932;2023-04-01T02:35:10;98159.53;;;8.47;100.00
7966;BME280;4028;43.272;26.932;2023-04-01T02:37:38;98161.34;;;8.47;100.00
7966;BME280;4028;43.272;26.932;2023-04-01T02:40:06;98153.00;;;8.51;100.00
7966;BME280;4028;43.272;26.932;2023-04-01T02:42:33;98144.34;;;8.41;100.00
7966;BME280;4028;43.272;26.932;2023-04-01T02:44:59;98142.25;;;8.45;100.00
7966;BME280;4028;43.272;26.932;2023-04-01T02:47:26;98149.38;;;8.52;100.00
7966;BME280;4028;43.272;26.932;2023-04-01T02:49:52;98138.09;;;8.42;100.00
7966;BME280;4028;43.272;26.932;2023-04-01T02:52:23;98107.78;;;8.20;100.00
7966;BME280;4028;43.272;26.932;2023-04-01T02:54:49;98127.31;;;8.36;100.00
7966;BME280;4028;43.272;26.932;2023-04-01T02:57:15;98122.81;;;8.46;100.00
7966;BME280;4028;43.272;26.932;2023-04-01T02:59:40;98116.53;;;8.47;100.00
7966;BME280;4028;43.272;26.932;2023-04-01T03:02:06;98116.03;;;8.43;100.00
7966;BME280;4028;43.272;26.932;2023-04-01T03:04:32;98120.47;;;8.43;100.00
7966;BME280;4028;43.272;26.932;2023-04-01T03:06:57;98113.84;;;8.39;100.00
7966;BME280;4028;43.272;26.932;2023-04-01T03:09:23;98118.16;;;8.40;100.00
7966;BME280;4028;43.272;26.932;2023-04-01T03:11:48;98114.28;;;8.34;100.00
7966;BME280;4028;43.272;26.932;2023-04-01T03:14:14;98105.63;;;8.42;100.00
7966;BME280;4028;43.272;26.932;2023-04-01T03:16:40;98102.78;;;8.35;100.00
7966;BME280;4028;43.272;26.932;2023-04-01T03:19:05;98100.97;;;8.36;100.00
7966;BME280;4028;43.272;26.932;2023-04-01T03:21:31;98105.72;;;8.32;100.00
7966;BME280;4028;43.272;26.932;2023-04-01T03:23:56;98091.63;;;8.23;100.00
7966;BME280;4028;43.272;26.932;2023-04-01T03:26:22;98097.22;;;8.20;100.00
7966;BME280;4028;43.272;26.932;2023-04-01T03:28:48;98099.09;;;8.28;100.00
7966;BME280;4028;43.272;26.932;2023-04-01T03:31:13;98085.06;;;8.19;100.00
7966;BME280;4028;43.272;26.932;2023-04-01T03:33:39;98093.78;;;8.20;100.00
7966;BME280;4028;43.272;26.932;2023-04-01T03:36:05;98089.47;;;8.19;100.00
7966;BME280;4028;43.272;26.932;2023-04-01T03:38:33;98090.00;;;8.22;100.00
7966;BME280;4028;43.272;26.932;2023-04-01T03:40:59;98092.47;;;8.24;100.00
7966;BME280;4028;43.272;26.932;2023-04-01T03:43:24;98094.34;;;8.31;100.00
7966;BME280;4028;43.272;26.932;2023-04-01T03:45:51;98093.44;;;8.23;100.00
7966;BME280;4028;43.272;26.932;2023-04-01T03:48:17;98092.47;;;8.24;100.00
7966;BME280;4028;43.272;26.932;2023-04-01T03:50:43;98078.78;;;8.20;100.00
7966;BME280;4028;43.272;26.932;2023-04-01T03:53:09;98092.31;;;8.25;100.00
7966;BME280;4028;43.272;26.932;2023-04-01T03:55:36;98094.03;;;8.34;100.00
7966;BME280;4028;43.272;26.932;2023-04-01T03:58:02;98090.66;;;8.42;100.00
7966;BME280;4028;43.272;26.932;2023-04-01T04:00:28;98091.94;;;8.38;100.00
7966;BME280;4028;43.272;26.932;2023-04-01T04:02:54;98072.84;;;8.44;100.00
7966;BME280;4028;43.272;26.932;2023-04-01T04:05:22;98088.84;;;8.43;100.00
7966;BME280;4028;43.272;26.932;2023-04-01T04:07:48;98088.84;;;8.43;100.00
7966;BME280;4028;43.272;26.932;2023-04-01T04:10:14;98086.19;;;8.43;100.00
7966;BME280;4028;43.272;26.932;2023-04-01T04:12:40;98086.91;;;8.53;100.00
7966;BME280;4028;43.272;26.932;2023-04-01T04:15:06;98094.16;;;8.51;100.00
7966;BME280;4028;43.272;26.932;2023-04-01T04:17:32;98097.47;;;8.53;100.00
7966;BME280;4028;43.272;26.932;2023-04-01T04:19:57;98061.28;;;8.37;100.00
7966;BME280;4028;43.272;26.932;2023-04-01T04:22:23;98063.34;;;8.51;100.00
7966;BME280;4028;43.272;26.932;2023-04-01T04:24:48;98082.25;;;8.73;100.00
7966;BME280;4028;43.272;26.932;2023-04-01T04:27:14;98079.44;;;8.74;100.00
7966;BME280;4028;43.272;26.932;2023-04-01T04:29:40;98074.16;;;8.74;100.00
7966;BME280;4028;43.272;26.932;2023-04-01T04:32:06;98051.75;;;8.70;100.00
7966;BME280;4028;43.272;26.932;2023-04-01T04:34:31;98062.44;;;8.69;100.00
7966;BME280;4028;43.272;26.932;2023-04-01T04:36:57;98062.78;;;8.74;100.00
7966;BME280;4028;43.272;26.932;2023-04-01T04:39:22;98068.94;;;8.82;100.00
7966;BME280;4028;43.272;26.932;2023-04-01T04:41:48;98029.97;;;8.68;100.00
7966;BME280;4028;43.272;26.932;2023-04-01T04:44:13;98066.28;;;8.82;100.00
7966;BME280;4028;43.272;26.932;2023-04-01T04:46:39;98071.63;;;8.91;100.00
7966;BME280;4028;43.272;26.932;2023-04-01T04:49:05;98071.97;;;9.04;100.00
7966;BME280;4028;43.272;26.932;2023-04-01T04:51:31;98069.50;;;9.10;100.00
7966;BME280;4028;43.272;26.932;2023-04-01T04:53:59;98056.63;;;8.99;100.00
7966;BME280;4028;43.272;26.932;2023-04-01T04:56:25;98065.56;;;9.15;100.00
7966;BME280;4028;43.272;26.932;2023-04-01T04:58:51;98064.78;;;9.22;100.00
7966;BME280;4028;43.272;26.932;2023-04-01T05:01:18;98048.25;;;9.20;100.00
7966;BME280;4028;43.272;26.932;2023-04-01T05:03:44;98059.88;;;9.44;100.00
7966;BME280;4028;43.272;26.932;2023-04-01T05:06:12;98059.19;;;9.50;100.00
7966;BME280;4028;43.272;26.932;2023-04-01T05:08:38;98042.69;;;9.56;100.00
7966;BME280;4028;43.272;26.932;2023-04-01T05:11:07;98046.66;;;9.76;100.00
7966;BME280;4028;43.272;26.932;2023-04-01T05:13:37;98042.38;;;9.92;100.00
7966;BME280;4028;43.272;26.932;2023-04-01T05:16:03;98036.41;;;10.06;100.00
7966;BME280;4028;43.272;26.932;2023-04-01T05:18:28;98047.13;;;10.21;100.00
7966;BME280;4028;43.272;26.932;2023-04-01T05:20:54;98049.94;;;10.19;100.00
7966;BME280;4028;43.272;26.932;2023-04-01T05:23:21;98047.13;;;10.21;100.00
7966;BME280;4028;43.272;26.932;2023-04-01T05:25:50;98035.41;;;10.31;100.00
7966;BME280;4028;43.272;26.932;2023-04-01T05:28:19;98038.38;;;10.28;100.00
7966;BME280;4028;43.272;26.932;2023-04-01T05:30:45;98042.03;;;10.27;100.00
7966;BME280;4028;43.272;26.932;2023-04-01T05:33:12;98037.72;;;10.18;100.00
7966;BME280;4028;43.272;26.932;2023-04-01T05:35:38;98036.91;;;10.09;100.00
7966;BME280;4028;43.272;26.932;2023-04-01T05:38:04;98036.59;;;10.04;100.00
7966;BME280;4028;43.272;26.932;2023-04-01T05:40:29;98029.50;;;10.05;100.00
7966;BME280;4028;43.272;26.932;2023-04-01T05:42:55;98023.88;;;10.00;100.00
7966;BME280;4028;43.272;26.932;2023-04-01T05:45:21;98026.03;;;10.04;100.00
7966;BME280;4028;43.272;26.932;2023-04-01T05:47:47;98029.13;;;10.08;100.00
7966;BME280;4028;43.272;26.932;2023-04-01T05:50:12;98024.66;;;10.16;100.00
7966;BME280;4028;43.272;26.932;2023-04-01T05:52:38;98021.53;;;10.29;100.00
7966;BME280;4028;43.272;26.932;2023-04-01T05:55:05;98021.88;;;10.34;100.00
7966;BME280;4028;43.272;26.932;2023-04-01T05:57:31;98013.06;;;10.42;100.00
7966;BME280;4028;43.272;26.932;2023-04-01T05:59:56;98012.22;;;10.50;100.00
7966;BME280;4028;43.272;26.932;2023-04-01T06:02:22;98011.19;;;10.59;100.00
7966;BME280;4028;43.272;26.932;2023-04-01T06:04:47;98004.84;;;10.76;100.00
7966;BME280;4028;43.272;26.932;2023-04-01T06:07:17;98004.06;;;10.99;100.00
7966;BME280;4028;43.272;26.932;2023-04-01T06:09:44;97999.25;;;11.02;100.00
7966;BME280;4028;43.272;26.932;2023-04-01T06:14:51;97994.72;;;11.11;100.00
7966;BME280;4028;43.272;26.932;2023-04-01T06:23:20;97994.75;;;11.57;100.00
7966;BME280;4028;43.272;26.932;2023-04-01T06:28:59;97988.75;;;11.78;100.00
7966;BME280;4028;43.272;26.932;2023-04-01T06:32:01;97982.50;;;11.70;100.00
7966;BME280;4028;43.272;26.932;2023-04-01T06:45:55;97976.84;;;11.96;100.00
7966;BME280;4028;43.272;26.932;2023-04-01T06:53:59;97980.06;;;13.02;100.00
7966;BME280;4028;43.272;26.932;2023-04-01T06:56:28;97978.53;;;13.14;100.00
7966;BME280;4028;43.272;26.932;2023-04-01T06:59:13;97977.50;;;13.30;100.00
7966;BME280;4028;43.272;26.932;2023-04-01T07:04:29;97973.31;;;14.48;100.00
7966;BME280;4028;43.272;26.932;2023-04-01T07:09:37;97966.69;;;15.79;100.00
7966;BME280;4028;43.272;26.932;2023-04-01T07:12:16;97954.16;;;16.78;99.56
7966;BME280;4028;43.272;26.932;2023-04-01T07:14:46;97960.13;;;17.50;81.28
7966;BME280;4028;43.272;26.932;2023-04-01T07:17:23;97957.06;;;17.78;76.04
7966;BME280;4028;43.272;26.932;2023-04-01T07:22:39;97962.28;;;17.03;77.48
7966;BME280;4028;43.272;26.932;2023-04-01T07:25:17;97966.41;;;16.41;88.93
7966;BME280;4028;43.272;26.932;2023-04-01T07:27:44;97966.09;;;15.77;96.24
7966;BME280;4028;43.272;26.932;2023-04-01T07:30:16;97953.31;;;15.26;100.00
7966;BME280;4028;43.272;26.932;2023-04-01T07:33:25;97965.47;;;14.81;100.00
7966;BME280;4028;43.272;26.932;2023-04-01T07:36:14;97960.09;;;14.68;100.00
7966;BME280;4028;43.272;26.932;2023-04-01T07:41:49;97956.69;;;14.94;100.00
7966;BME280;4028;43.272;26.932;2023-04-01T07:55:24;97943.84;;;15.11;100.00
7966;BME280;4028;43.272;26.932;2023-04-01T07:58:08;97944.41;;;14.93;100.00
7966;BME280;4028;43.272;26.932;2023-04-01T08:08:56;97943.19;;;14.95;100.00
7966;BME280;4028;43.272;26.932;2023-04-01T08:14:19;97929.28;;;15.06;100.00
7966;BME280;4028;43.272;26.932;2023-04-01T08:17:00;97933.84;;;15.26;100.00
7966;BME280;4028;43.272;26.932;2023-04-01T08:22:15;97933.00;;;15.32;100.00
7966;BME280;4028;43.272;26.932;2023-04-01T08:24:46;97937.91;;;15.28;100.00
7966;BME280;4028;43.272;26.932;2023-04-01T08:27:23;97930.56;;;15.30;100.00
7966;BME280;4028;43.272;26.932;2023-04-01T08:32:55;97937.09;;;15.28;100.00
7966;BME280;4028;43.272;26.932;2023-04-01T08:35:28;97936.72;;;15.31;100.00
7966;BME280;4028;43.272;26.932;2023-04-01T08:38:44;97932.19;;;15.38;100.00
7966;BME280;4028;43.272;26.932;2023-04-01T08:49:10;97931.19;;;15.52;100.00
7966;BME280;4028;43.272;26.932;2023-04-01T09:00:29;97917.06;;;15.72;100.00
7966;BME280;4028;43.272;26.932;2023-04-01T09:05:47;97906.97;;;15.60;100.00
7966;BME280;4028;43.272;26.932;2023-04-01T09:17:55;97887.91;;;15.70;100.00
7966;BME280;4028;43.272;26.932;2023-04-01T09:23:33;97888.53;;;15.72;100.00
7966;BME280;4028;43.272;26.932;2023-04-01T09:29:01;97878.91;;;15.65;100.00
7966;BME280;4028;43.272;26.932;2023-04-01T09:31:37;97873.78;;;15.70;100.00
7966;BME280;4028;43.272;26.932;2023-04-01T09:42:42;97864.06;;;16.02;100.00
7966;BME280;4028;43.272;26.932;2023-04-01T09:48:07;97855.59;;;16.11;100.00
7966;BME280;4028;43.272;26.932;2023-04-01T09:54:21;97844.72;;;16.20;100.00
7966;BME280;4028;43.272;26.932;2023-04-01T10:22:16;97796.66;;;17.64;84.55
7966;BME280;4028;43.272;26.932;2023-04-01T10:25:10;97792.34;;;17.63;82.50
7966;BME280;4028;43.272;26.932;2023-04-01T10:28:29;97797.41;;;17.72;81.95
7966;BME280;4028;43.272;26.932;2023-04-01T10:34:03;97790.59;;;17.76;82.98
7966;BME280;4028;43.272;26.932;2023-04-01T10:45:19;97783.69;;;18.65;72.07
7966;BME280;4028;43.272;26.932;2023-04-01T10:48:18;97776.78;;;18.87;67.10
7966;BME280;4028;43.272;26.932;2023-04-01T10:59:36;97773.91;;;18.89;63.83
7966;BME280;4028;43.272;26.932;2023-04-01T11:11:07;97749.59;;;20.01;61.36
7966;BME280;4028;43.272;26.932;2023-04-01T11:22:44;97748.78;;;21.75;51.10
7966;BME280;4028;43.272;26.932;2023-04-01T11:26:06;97746.03;;;22.14;49.33
7966;BME280;4028;43.272;26.932;2023-04-01T11:28:58;97729.88;;;21.53;50.01
7966;BME280;4028;43.272;26.932;2023-04-01T11:31:43;97730.25;;;21.23;52.37
7966;BME280;4028;43.272;26.932;2023-04-01T11:39:33;97717.88;;;20.72;52.48
7966;BME280;4028;43.272;26.932;2023-04-01T11:45:30;97707.88;;;20.39;54.04
7966;BME280;4028;43.272;26.932;2023-04-01T11:48:23;97712.97;;;20.23;54.23
7966;BME280;4028;43.272;26.932;2023-04-01T11:53:26;97701.75;;;19.98;55.70
7966;BME280;4028;43.272;26.932;2023-04-01T12:02:14;97702.00;;;19.33;58.60
7966;BME280;4028;43.272;26.932;2023-04-01T12:10:29;97679.28;;;19.12;62.17
7966;BME280;4028;43.272;26.932;2023-04-01T12:13:40;97670.06;;;19.08;63.01
7966;BME280;4028;43.272;26.932;2023-04-01T12:16:21;97652.13;;;19.08;63.22
7966;BME280;4028;43.272;26.932;2023-04-01T12:19:02;97661.09;;;19.26;64.25
7966;BME280;4028;43.272;26.932;2023-04-01T12:27:05;97643.25;;;20.00;58.06
7966;BME280;4028;43.272;26.932;2023-04-01T12:32:46;97638.50;;;20.02;58.26
7966;BME280;4028;43.272;26.932;2023-04-01T12:35:39;97632.97;;;20.25;57.27
7966;BME280;4028;43.272;26.932;2023-04-01T12:41:02;97639.22;;;20.60;55.68
7966;BME280;4028;43.272;26.932;2023-04-01T12:46:25;97639.44;;;20.92;52.07
7966;BME280;4028;43.272;26.932;2023-04-01T12:52:06;97620.91;;;20.73;50.02
7966;BME280;4028;43.272;26.932;2023-04-01T12:54:48;97618.19;;;20.90;50.06
7966;BME280;4028;43.272;26.932;2023-04-01T13:13:53;97613.78;;;21.23;53.09
7966;BME280;4028;43.272;26.932;2023-04-01T13:17:30;97597.00;;;20.77;55.62
7966;BME280;4028;43.272;26.932;2023-04-01T13:19:44;97605.59;;;20.74;56.97
7966;BME280;4028;43.272;26.932;2023-04-01T13:28:18;97585.81;;;20.63;59.56
7966;BME280;4028;43.272;26.932;2023-04-01T13:33:45;97581.91;;;20.37;62.52
7966;BME280;4028;43.272;26.932;2023-04-01T13:43:08;97581.47;;;20.12;65.70
7966;BME280;4028;43.272;26.932;2023-04-01T13:57:48;97574.31;;;20.68;61.47
7966;BME280;4028;43.272;26.932;2023-04-01T14:11:16;97551.69;;;20.47;62.14
7966;BME280;4028;43.272;26.932;2023-04-01T14:22:42;97545.25;;;20.14;64.56
7966;BME280;4028;43.272;26.932;2023-04-01T14:50:24;97505.13;;;20.58;61.05
7966;BME280;4028;43.272;26.932;2023-04-01T14:58:07;97503.19;;;20.03;63.49
7966;BME280;4028;43.272;26.932;2023-04-01T15:00:46;97496.28;;;20.07;64.10
7966;BME280;4028;43.272;26.932;2023-04-01T15:11:23;97481.31;;;19.78;70.23
7966;BME280;4028;43.272;26.932;2023-04-01T15:14:01;97476.19;;;19.47;79.82
7966;BME280;4028;43.272;26.932;2023-04-01T15:17:05;97466.88;;;19.21;81.81
7966;BME280;4028;43.272;26.932;2023-04-01T15:25:22;97432.78;;;18.65;72.88
7966;BME280;4028;43.272;26.932;2023-04-01T15:36:43;97463.91;;;18.42;74.06
7966;BME280;4028;43.272;26.932;2023-04-01T15:39:14;97469.25;;;18.42;72.77
7966;BME280;4028;43.272;26.932;2023-04-01T15:58:35;97465.91;;;18.24;84.64
7966;BME280;4028;43.272;26.932;2023-04-01T16:01:43;97473.00;;;18.06;80.19
7966;BME280;4028;43.272;26.932;2023-04-01T16:04:30;97471.97;;;18.31;77.89
7966;BME280;4028;43.272;26.932;2023-04-01T16:18:59;97496.16;;;18.01;93.28
7966;BME280;4028;43.272;26.932;2023-04-01T16:21:45;97462.88;;;17.85;96.33
7966;BME280;4028;43.272;26.932;2023-04-01T16:27:10;97513.97;;;18.07;97.05
7966;BME280;4028;43.272;26.932;2023-04-01T16:30:00;97502.56;;;18.00;100.00
7966;BME280;4028;43.272;26.932;2023-04-01T16:32:44;97507.66;;;18.01;100.00
7966;BME280;4028;43.272;26.932;2023-04-01T16:38:49;97500.94;;;17.87;100.00
7966;BME280;4028;43.272;26.932;2023-04-01T16:41:31;97498.81;;;17.89;100.00
7966;BME280;4028;43.272;26.932;2023-04-01T16:44:20;97491.63;;;18.01;100.00
7966;BME280;4028;43.272;26.932;2023-04-01T16:46:57;97540.72;;;17.95;100.00
7966;BME280;4028;43.272;26.932;2023-04-01T16:49:56;97570.66;;;17.55;100.00
7966;BME280;4028;43.272;26.932;2023-04-01T16:55:20;97565.00;;;16.10;100.00
7966;BME280;4028;43.272;26.932;2023-04-01T16:57:51;97586.47;;;15.58;100.00
7966;BME280;4028;43.272;26.932;2023-04-01T17:11:21;97580.44;;;13.87;100.00
7966;BME280;4028;43.272;26.932;2023-04-01T17:22:03;97574.25;;;13.53;100.00
7966;BME280;4028;43.272;26.932;2023-04-01T17:36:05;97597.84;;;14.03;100.00
7966;BME280;4028;43.272;26.932;2023-04-01T17:54:43;97685.38;;;13.37;100.00
7966;BME280;4028;43.272;26.932;2023-04-01T17:57:39;97674.91;;;13.35;100.00
7966;BME280;4028;43.272;26.932;2023-04-01T18:00:24;97698.19;;;13.26;100.00
7966;BME280;4028;43.272;26.932;2023-04-01T18:03:09;97711.63;;;13.25;100.00
7966;BME280;4028;43.272;26.932;2023-04-01T18:08:59;97741.16;;;13.15;100.00
7966;BME280;4028;43.272;26.932;2023-04-01T18:25:35;97733.09;;;12.95;100.00
7966;BME280;4028;43.272;26.932;2023-04-01T18:31:09;97742.19;;;12.86;100.00
7966;BME280;4028;43.272;26.932;2023-04-01T18:33:47;97746.81;;;12.78;100.00
7966;BME280;4028;43.272;26.932;2023-04-01T18:36:40;97757.94;;;12.88;100.00
7966;BME280;4028;43.272;26.932;2023-04-01T18:39:40;97756.81;;;13.04;100.00
7966;BME280;4028;43.272;26.932;2023-04-01T18:45:20;97768.94;;;13.13;100.00
7966;BME280;4028;43.272;26.932;2023-04-01T18:51:01;97771.16;;;13.09;100.00
7966;BME280;4028;43.272;26.932;2023-04-01T18:56:05;97793.13;;;12.96;100.00
7966;BME280;4028;43.272;26.932;2023-04-01T18:58:36;97787.56;;;12.91;100.00
7966;BME280;4028;43.272;26.932;2023-04-01T19:01:22;97779.22;;;12.94;100.00
7966;BME280;4028;43.272;26.932;2023-04-01T19:06:43;97772.75;;;13.04;100.00
7966;BME280;4028;43.272;26.932;2023-04-01T19:09:45;97768.19;;;12.91;100.00
7966;BME280;4028;43.272;26.932;2023-04-01T19:15:15;97760.88;;;12.99;100.00
7966;BME280;4028;43.272;26.932;2023-04-01T19:26:35;97769.47;;;13.01;100.00
7966;BME280;4028;43.272;26.932;2023-04-01T19:29:06;97769.81;;;12.92;100.00
7966;BME280;4028;43.272;26.932;2023-04-01T19:37:08;97791.69;;;12.72;100.00
7966;BME280;4028;43.272;26.932;2023-04-01T19:39:48;97783.53;;;12.74;100.00
7966;BME280;4028;43.272;26.932;2023-04-01T19:45:15;97802.50;;;12.71;100.00
7966;BME280;4028;43.272;26.932;2023-04-01T19:53:28;97796.53;;;12.69;100.00
7966;BME280;4028;43.272;26.932;2023-04-01T19:56:17;97809.00;;;12.68;100.00
7966;BME280;4028;43.272;26.932;2023-04-01T19:58:55;97820.56;;;12.61;100.00
7966;BME280;4028;43.272;26.932;2023-04-01T20:01:44;97821.13;;;12.56;100.00
7966;BME280;4028;43.272;26.932;2023-04-01T20:04:26;97821.25;;;12.48;100.00
7966;BME280;4028;43.272;26.932;2023-04-01T20:09:58;97826.91;;;12.60;100.00
7966;BME280;4028;43.272;26.932;2023-04-01T20:12:52;97831.47;;;12.51;100.00
7966;BME280;4028;43.272;26.932;2023-04-01T20:15:37;97827.50;;;12.62;100.00
7966;BME280;4028;43.272;26.932;2023-04-01T20:18:18;97835.41;;;12.55;100.00
7966;BME280;4028;43.272;26.932;2023-04-01T20:26:13;97820.13;;;12.57;100.00
7966;BME280;4028;43.272;26.932;2023-04-01T20:42:29;97829.44;;;12.32;100.00
7966;BME280;4028;43.272;26.932;2023-04-01T20:53:31;97834.75;;;12.17;100.00
7966;BME280;4028;43.272;26.932;2023-04-01T21:06:44;97830.41;;;12.09;100.00
7966;BME280;4028;43.272;26.932;2023-04-01T21:17:22;97827.03;;;12.01;100.00
7966;BME280;4028;43.272;26.932;2023-04-01T21:31:00;97869.22;;;12.17;100.00
7966;BME280;4028;43.272;26.932;2023-04-01T21:33:50;97865.84;;;12.23;100.00
7966;BME280;4028;43.272;26.932;2023-04-01T21:39:15;97884.25;;;12.10;100.00
7966;BME280;4028;43.272;26.932;2023-04-01T22:07:23;97874.84;;;11.40;100.00
7966;BME280;4028;43.272;26.932;2023-04-01T22:12:31;97875.75;;;11.32;100.00
7966;BME280;4028;43.272;26.932;2023-04-01T22:15:46;97874.47;;;11.28;100.00
7966;BME280;4028;43.272;26.932;2023-04-01T22:21:09;97882.50;;;10.97;100.00
7966;BME280;4028;43.272;26.932;2023-04-01T22:26:36;97878.34;;;10.94;100.00
7966;BME280;4028;43.272;26.932;2023-04-01T22:29:38;97880.59;;;10.83;100.00
7966;BME280;4028;43.272;26.932;2023-04-01T22:32:16;97872.13;;;10.87;100.00
7966;BME280;4028;43.272;26.932;2023-04-01T22:35:00;97878.88;;;10.90;100.00
7966;BME280;4028;43.272;26.932;2023-04-01T22:43:37;97868.56;;;10.80;100.00
7966;BME280;4028;43.272;26.932;2023-04-01T22:49:12;97848.44;;;10.71;100.00
7966;BME280;4028;43.272;26.932;2023-04-01T22:51:52;97847.84;;;10.61;100.00
7966;BME280;4028;43.272;26.932;2023-04-01T22:59:59;97847.47;;;10.41;100.00
7966;BME280;4028;43.272;26.932;2023-04-01T23:02:38;97843.19;;;10.40;100.00
7966;BME280;4028;43.272;26.932;2023-04-01T23:05:05;97828.84;;;10.34;100.00
7966;BME280;4028;43.272;26.932;2023-04-01T23:10:42;97825.84;;;10.37;100.00
7966;BME280;4028;43.272;26.932;2023-04-01T23:13:15;97833.88;;;10.13;100.00
7966;BME280;4028;43.272;26.932;2023-04-01T23:15:42;97816.13;;;9.99;100.00
7966;BME280;4028;43.272;26.932;2023-04-01T23:18:18;97810.44;;;10.10;100.00
7966;BME280;4028;43.272;26.932;2023-04-01T23:20:58;97830.31;;;9.98;100.00
7966;BME280;4028;43.272;26.932;2023-04-01T23:23:56;97819.09;;;9.96;100.00
7966;BME280;4028;43.272;26.932;2023-04-01T23:26:34;97818.28;;;9.95;100.00
7966;BME280;4028;43.272;26.932;2023-04-01T23:29:03;97818.78;;;9.90;100.00
7966;BME280;4028;43.272;26.932;2023-04-01T23:31:32;97819.44;;;9.93;100.00
7966;BME280;4028;43.272;26.932;2023-04-01T23:36:47;97804.75;;;9.90;100.00
7966;BME280;4028;43.272;26.932;2023-04-01T23:39:23;97801.28;;;9.89;100.00
7966;BME280;4028;43.272;26.932;2023-04-01T23:41:53;97807.91;;;9.85;100.00
7966;BME280;4028;43.272;26.932;2023-04-01T23:44:20;97798.72;;;9.73;100.00
7966;BME280;4028;43.272;26.932;2023-04-01T23:46:47;97793.91;;;9.77;100.00
7966;BME280;4028;43.272;26.932;2023-04-01T23:49:18;97805.28;;;9.85;100.00
7966;BME280;4028;43.272;26.932;2023-04-01T23:51:59;97792.44;;;9.74;100.00
7966;BME280;4028;43.272;26.932;2023-04-01T23:54:43;97805.97;;;9.79;100.00
7966;BME280;4028;43.272;26.932;2023-04-01T23:57:17;97791.13;;;9.70;100.00